Tiempo atmosférico en la estación meteorológica de Fuente De Cantos, Badajoz (602 m.)



Fecha
DESCASC
Temp. máxima en grados centígrados (hora)
DESCASC
Temp. mínima en grados centígrados (hora)
DESCASC
Temp. media en grados centígrados
DESCASC
Racha de viento máxima en m/sg (hora)
DESCASC
Velocidad máxima media en intervalos de 10 minutos(hora)
DESCASC
Precipitaciones diarias en mm
DESCASC
Precipitaciones de 00:00 a 06:00 en mm
DESCASC
Precipitaciones de 06:00 a 12:00 en mm
DESCASC
Precipitaciones de 12:00 a 18:00 en mm
DESCASC
Precipitaciones de 18:00 a 24:00 en mm
DESCASC
22-11-2020 17 (16:00) 8.4 (05:50) 12.7 8.89 (11:00) 6.39 (10:50) 0 0 0 0 0
21-11-2020 19 (15:00) 7.2 (07:10) 13.1 10 (09:30) 7.22 (23:00) 0 0 0 0 0
20-11-2020 19.9 (14:10) 11.2 (06:50) 15.5 9.72 (10:20) 8.06 (10:30) 0 0 0 0 0
19-11-2020 22.4 (15:00) 13.1 (00:00) 17.8 12.78 (14:40) 10 (14:50) 0 0 0 0 0
18-11-2020 23.8 (15:40) 14.9 (00:00) 19.3 6.11 (10:40) 5 (09:20) 0 0 0 0 0
17-11-2020 22.9 (15:10) 12.6 (00:00) 17.8 5.56 (14:00) 4.44 (09:10) 0.2 0.2 0 0 0
16-11-2020 19.9 (15:40) 13 (00:00) 16.4 5 (16:10) 3.89 (16:00) 0 0 0 0 0
15-11-2020 21.6 (14:00) 13.4 (00:00) 17.5 9.72 (14:20) 6.94 (15:20) 0 0 0 0 0
14-11-2020 18.5 (14:00) 13.2 (00:00) 15.8 9.17 (13:00) 6.67 (12:30) 0 0 0 0 0
13-11-2020 17 (16:00) 11.1 (00:00) 14.1 8.33 (16:00) 5.83 (16:10) 0 0 0 0 0
12-11-2020 17.7 (15:40) 10.3 (00:00) 14 8.06 (15:20) 5.83 (15:50) 0 0 0 0 0
11-11-2020 17.5 (13:40) 9.1 (00:00) 13.3 10.83 (13:10) 8.33 (13:10) 0 0 0 0 0
10-11-2020 17.9 (15:30) 7.3 (00:00) 12.6 8.33 (15:10) 5.56 (16:20) 0.2 0 0.2 0 0
09-11-2020 17.6 (15:10) 10.8 (00:00) 14.2 6.11 (00:20) 4.44 (00:50) 3.2 3.2 0 0 0
08-11-2020 17.5 (14:50) 11.2 (00:00) 14.3 10.28 (12:50) 7.5 (12:00) 2 0 0 0 2
07-11-2020 16.9 (14:50) 10.3 (00:00) 13.6 15 (00:10) 9.44 (13:40) 5 5 0 0 0
06-11-2020 19.8 (13:40) 12.5 (00:00) 16.1 15.56 (16:20) 11.67 (16:20) 3.6 0 0 0 3.6
05-11-2020 15.9 (16:00) 9.3 (00:00) 12.6 14.17 (18:40) 11.11 (18:40) 13 11.2 1.8 0 0
04-11-2020 17.3 (15:20) 9.1 (00:00) 13.2 13.33 (18:10) 8.33 (16:30) 15.2 0 0 2.6 12.6
03-11-2020 17 (17:00) 12.9 (00:00) 14.9 5.28 (11:10) 4.17 (11:20) 0.6 0 0.6 0 0
02-11-2020 22.1 (14:00) 11.5 (00:00) 16.8 5.28 (16:30) 4.72 (16:30) 0 0 0 0 0
01-11-2020 22.4 (17:10) 13 (00:00) 17.7 5 (20:40) 3.89 (20:40) 0 0 0 0 0
31-10-2020 23.3 (15:50) 13.7 (00:00) 18.5 5.83 (19:40) 4.72 (20:10) 0 0 0 0 0
30-10-2020 24.5 (14:20) 11.6 (00:00) 18.1 7.22 (10:00) 5.28 (10:00) 0 0 0 0 0
29-10-2020 23.9 (16:20) 11 (00:00) 17.4 7.5 (15:20) 6.11 (23:59) 0 0 0 0 0
28-10-2020 18.8 (16:10) 9.2 (00:00) 14 5.83 (20:30) 5 (20:20) 0 0 0 0 0
27-10-2020 15.6 (17:00) 6.3 (00:00) 11 6.67 (15:10) 4.17 (18:10) 0 0 0 0 0
26-10-2020 13.6 (17:00) 6.8 (00:00) 10.2 10.28 (12:00) 7.22 (12:00) 0.2 0.2 0 0 0

Gráficas

Temp. máximas Temp. mínimas Temp. medias Precipitaciones Rachas de viento máximas Velocidades máximas media en intervalos de 10 minutos

Datos horarios

Fecha y hora oficial Temperatura (ºC) Velocidad del viento (km/h) Dirección del viento Racha (km/h) Dirección de racha Precipitación (mm) Presión (hPa) Tendencia (hPa) Humedad (%)
2020-11-24 23:00:00 9.9 6 Sur 13 Sur 0 -- -- 89
2020-11-24 22:00:00 10.5 5 Sur 10 Sur 0 -- -- 87
2020-11-24 21:00:00 10.3 8 Sur 13 Sudeste 0 -- -- 86
2020-11-24 20:00:00 10.6 10 Sudeste 14 Sudeste 0 -- -- 84
2020-11-24 19:00:00 11.5 9 Sudeste 13 Sudeste 0 -- -- 81
2020-11-24 18:00:00 12.5 9 Sudeste 14 Sur 0 -- -- 74
2020-11-24 17:00:00 13.1 9 Sur 14 Sur 0 -- -- 67
2020-11-24 16:00:00 13.3 9 Sur 20 Sudoeste 0 -- -- 64
2020-11-24 15:00:00 13.7 21 Sudoeste 27 Sudoeste 0 -- -- 64
2020-11-24 14:00:00 14.4 16 Sur 26 Sur 0 -- -- 63
2020-11-24 13:00:00 13.7 8 Sudoeste 13 Sudoeste 0 -- -- 67
2020-11-24 12:00:00 13.9 2 Sudeste 8 Nordeste 0 -- -- 67
2020-11-24 11:00:00 11.9 4 Nordeste 7 Este 0 -- -- 75
2020-11-24 10:00:00 10.8 0 Calma 5 Sudeste 0 -- -- 78
2020-11-24 09:00:00 8.8 4 Sudeste 8 Sudeste 0 -- -- 77
2020-11-24 08:00:00 8.2 6 Sudeste 8 Sudeste 0 -- -- 77
2020-11-24 07:00:00 8.7 4 Sur 9 Sudeste 0 -- -- 74
2020-11-24 06:00:00 8.4 8 Sudeste 10 Sudeste 0 -- -- 70
2020-11-24 05:00:00 8.5 8 Sudeste 9 Sudeste 0 -- -- 70
2020-11-24 04:00:00 7.8 6 Este 12 Este 0 -- -- 74
2020-11-24 03:00:00 8.6 6 Sudeste 13 Sudeste 0 -- -- 69
2020-11-24 02:00:00 8.6 12 Sudeste 15 Sudeste 0 -- -- 71
2020-11-24 01:00:00 9 12 Sudeste 14 Sudeste 0 -- -- 73
2020-11-24 00:00:00 8.7 12 Sudeste 17 Sudeste 0 -- -- 74
2020-11-23 23:00:00 10 13 Sudeste 15 Sudeste 0 -- -- 69
2020-11-23 22:00:00 10.1 13 Sudeste 17 Este 0 -- -- 68
2020-11-23 21:00:00 9.8 14 Sudeste 15 Sudeste 0 -- -- 69
2020-11-23 20:00:00 10 13 Sudeste 15 Sudeste 0 -- -- 72
2020-11-23 19:00:00 11.4 15 Sudeste 18 Sudeste 0 -- -- 68
2020-11-23 18:00:00 13.3 15 Este 18 Este 0 -- -- 59
2020-11-23 17:00:00 15.7 12 Este 21 Este 0 -- -- 49
2020-11-23 16:00:00 16.1 13 Este 21 Este 0 -- -- 52
2020-11-23 15:00:00 16.1 13 Este 20 Este 0 -- -- 55
2020-11-23 14:00:00 15.6 13 Este 21 Este 0 -- -- 56
2020-11-23 13:00:00 14.7 12 Este 21 Este 0 -- -- 62
2020-11-23 12:00:00 13.4 14 Este 21 Este 0 -- -- 64
2020-11-23 11:00:00 12.2 9 Este 23 Sudeste 0 -- -- 70
2020-11-23 10:00:00 10.5 16 Sudeste 24 Este 0 -- -- 75
2020-11-23 09:00:00 9 17 Este 22 Este 0 -- -- 75
2020-11-23 08:00:00 8.9 15 Este 21 Este 0 -- -- 76
2020-11-23 07:00:00 10 14 Este 19 Este 0 -- -- 73
2020-11-23 06:00:00 9.8 13 Este 18 Este 0 -- -- 73
2020-11-23 05:00:00 10.2 11 Este 15 Este 0 -- -- 72
2020-11-23 04:00:00 9.7 10 Este 11 Este 0 -- -- 75
2020-11-23 03:00:00 9.2 7 Nordeste 8 Nordeste 0 -- -- 77
2020-11-23 02:00:00 9.4 4 Nordeste 8 Sudeste 0 -- -- 75
2020-11-23 01:00:00 10 5 Sudeste 7 Este 0 -- -- 73
2020-11-23 00:00:00 10.9 6 Este 9 Este 0 -- -- 69
2020-11-22 23:00:00 11.3 6 Este 9 Este 0 -- -- 65
2020-11-22 22:00:00 10.3 9 Este 9 Este 0 -- -- 67
2020-11-22 21:00:00 12 5 Este 7 Sudeste 0 -- -- 66
2020-11-22 20:00:00 11.7 7 Sudeste 10 Sudeste 0 -- -- 68
2020-11-22 19:00:00 13.4 10 Sudeste 14 Este 0 -- -- 61
2020-11-22 18:00:00 15.1 9 Este 18 Este 0 -- -- 51
2020-11-22 17:00:00 16.7 9 Este 19 Este 0 -- -- 54
2020-11-22 16:00:00 17 10 Este 22 Este 0 -- -- 54
2020-11-22 15:00:00 16.5 14 Este 26 Sudeste 0 -- -- 55
2020-11-22 14:00:00 16 16 Este 26 Sudeste 0 -- -- 58
2020-11-22 13:00:00 15.3 18 Este 29 Este 0 -- -- 59
2020-11-22 12:00:00 14.1 22 Este 31 Sudeste 0 -- -- 65
2020-11-22 11:00:00 12.4 22 Sudeste 32 Sudeste 0 -- -- 77
2020-11-22 10:00:00 10.7 13 Este 24 Este 0 -- -- 84
2020-11-22 09:00:00 8.5 12 Este 22 Este 0 -- -- 89
2020-11-22 08:00:00 8.5 17 Este 24 Este 0 -- -- 90
2020-11-22 07:00:00 8.9 17 Este 23 Este 0 -- -- 91
2020-11-22 06:00:00 8.4 15 Este 18 Este 0 -- -- 92
2020-11-22 05:00:00 9.2 13 Este 20 Este 0 -- -- 89
2020-11-22 04:00:00 9.1 17 Este 24 Este 0 -- -- 90
2020-11-22 03:00:00 9.9 20 Este 26 Este 0 -- -- 87
2020-11-22 02:00:00 10.2 19 Este 26 Este 0 -- -- 84
2020-11-22 01:00:00 9.9 22 Este 30 Sudeste 0 -- -- 85
2020-11-22 00:00:00 10.3 19 Este 30 Sudeste 0 -- -- 82
2020-11-21 23:00:00 11.2 26 Sudeste 35 Sudeste 0 -- -- 78
2020-11-21 22:00:00 11.8 20 Este 30 Este 0 -- -- 76
2020-11-21 21:00:00 12.2 22 Sudeste 30 Sudeste 0 -- -- 79
2020-11-21 20:00:00 12.9 23 Sudeste 28 Sudeste 0 -- -- 78
2020-11-21 19:00:00 13.6 21 Sudeste 26 Sudeste 0 -- -- 79
2020-11-21 18:00:00 15.6 20 Sudeste 26 Sudeste 0 -- -- 72
2020-11-21 17:00:00 18.1 14 Este 24 Este 0 -- -- 64
2020-11-21 16:00:00 18.8 13 Este 21 Este 0 -- -- 61
2020-11-21 15:00:00 19 9 Este 18 Este 0 -- -- 61
2020-11-21 14:00:00 18.5 10 Este 19 Este 0 -- -- 62
2020-11-21 13:00:00 17.8 11 Este 22 Sudeste 0 -- -- 63
2020-11-21 12:00:00 16.7 12 Sudeste 27 Sudeste 0 -- -- 64
2020-11-21 11:00:00 14.5 19 Este 31 Sudeste 0 -- -- 70
2020-11-21 10:00:00 11.9 22 Sudeste 36 Este 0 -- -- 69
2020-11-21 09:00:00 10.8 24 Sudeste 28 Sudeste 0 -- -- 68
2020-11-21 08:00:00 9 18 Este 24 Este 0 -- -- 55
2020-11-21 07:00:00 7.4 21 Este 22 Este 0 -- -- 64
2020-11-21 06:00:00 8 19 Este 21 Este 0 -- -- 60
2020-11-21 05:00:00 8.2 20 Este 24 Este 0 -- -- 59
2020-11-21 04:00:00 8.3 15 Nordeste 19 Este 0 -- -- 58
2020-11-21 03:00:00 10.4 16 Este 20 Nordeste 0 -- -- 49
2020-11-21 02:00:00 10.9 15 Este 20 Este 0 -- -- 48
2020-11-21 01:00:00 12.2 11 Este 21 Este 0 -- -- 45
2020-11-21 00:00:00 12.1 6 Sudeste 24 Este 0 -- -- 46
2020-11-20 23:00:00 12.1 17 Este 26 Nordeste 0 -- -- 46
2020-11-20 22:00:00 11.7 17 Este 21 Nordeste 0 -- -- 51
2020-11-20 21:00:00 12.3 21 Este 23 Este 0 -- -- 50
2020-11-20 20:00:00 12.9 16 Nordeste 21 Nordeste 0 -- -- 49
2020-11-20 19:00:00 14 16 Nordeste 28 Nordeste 0 -- -- 49
2020-11-20 18:00:00 15.6 21 Nordeste 35 Nordeste 0 -- -- 48
2020-11-20 17:00:00 18.1 22 Nordeste 30 Nordeste 0 -- -- 43
2020-11-20 16:00:00 19.2 23 Nordeste 32 Nordeste 0 -- -- 35
2020-11-20 15:00:00 19.6 24 Nordeste 32 Nordeste 0 -- -- 43
2020-11-20 14:00:00 19.8 17 Este 30 Nordeste 0 -- -- 48
2020-11-20 13:00:00 18.9 21 Este 32 Este 0 -- -- 55
2020-11-20 12:00:00 16.9 27 Nordeste 33 Nordeste 0 -- -- 66
2020-11-20 11:00:00 15.5 26 Nordeste 35 Nordeste 0 -- -- 71
2020-11-20 10:00:00 14.1 20 Este 27 Este 0 -- -- 75
2020-11-20 09:00:00 12.6 19 Este 27 Nordeste 0 -- -- 77
2020-11-20 08:00:00 11.6 22 Este 30 Este 0 -- -- 80
2020-11-20 07:00:00 11.2 19 Este 31 Este 0 -- -- 82
2020-11-20 06:00:00 13.3 25 Este 32 Este 0 -- -- 72
2020-11-20 05:00:00 12.3 20 Este 24 Este 0 -- -- 77
2020-11-20 04:00:00 13.5 17 Este 22 Este 0 -- -- 72
2020-11-20 03:00:00 13.5 19 Este 20 Este 0 -- -- 80
2020-11-20 02:00:00 13.2 18 Nordeste 21 Nordeste 0 -- -- 81
2020-11-20 01:00:00 13.4 12 Nordeste 24 Nordeste 0 -- -- 78
2020-11-20 00:00:00 14.2 18 Nordeste 20 Nordeste 0 -- -- 76
2020-11-19 23:00:00 13.9 10 Nordeste 13 Norte 0 -- -- 80
2020-11-19 22:00:00 14.5 4 Sudeste 16 Norte 0 -- -- 78
2020-11-19 21:00:00 14.9 12 Nordeste 22 Norte 0 -- -- 77
2020-11-19 20:00:00 15.4 18 Norte 27 Norte 0 -- -- 77
2020-11-19 19:00:00 15.7 19 Norte 24 Norte 0 -- -- 76
2020-11-19 18:00:00 17.3 17 Nordeste 23 Norte 0 -- -- 73
2020-11-19 17:00:00 19.5 19 Nordeste 32 Nordeste 0 -- -- 60
2020-11-19 16:00:00 22.3 25 Nordeste 40 Nordeste 0 -- -- 49
2020-11-19 15:00:00 22.4 34 Nordeste 46 Nordeste 0 -- -- 43
2020-11-19 14:00:00 22.2 21 Este 34 Este 0 -- -- 46
2020-11-19 13:00:00 21.4 23 Este 32 Nordeste 0 -- -- 48
2020-11-19 12:00:00 20.1 11 Nordeste 19 Este 0 -- -- 58
2020-11-19 11:00:00 18 15 Nordeste 29 Este 0 -- -- 65
2020-11-19 10:00:00 16.6 23 Este 30 Este 0 -- -- 64
2020-11-19 09:00:00 14.4 22 Este 25 Este 0 -- -- 73
2020-11-19 08:00:00 13.8 19 Este 29 Este 0 -- -- 75
2020-11-19 07:00:00 14.9 24 Este 28 Este 0 -- -- 71
2020-11-19 06:00:00 14.5 15 Este 18 Este 0 -- -- 72
2020-11-19 05:00:00 13.8 9 Nordeste 23 Este 0 -- -- 78
2020-11-19 04:00:00 13.7 19 Este 22 Este 0 -- -- 81
2020-11-19 03:00:00 14.2 17 Este 24 Este 0 -- -- 79
2020-11-19 02:00:00 15.5 16 Este 22 Este 0 -- -- 73
2020-11-19 01:00:00 14.4 8 Nordeste 11 Nordeste 0 -- -- 78
2020-11-19 00:00:00 15.2 5 Este 13 Este 0 -- -- 75
2020-11-18 23:00:00 15.1 12 Este 13 Este 0 -- -- 82
2020-11-18 22:00:00 15.4 5 Este 13 Nordeste 0 -- -- 87
2020-11-18 21:00:00 16.1 6 Nordeste 14 Norte 0 -- -- 85
2020-11-18 20:00:00 16.8 12 Norte 19 Norte 0 -- -- 86
2020-11-18 19:00:00 18 11 Norte 14 Norte 0 -- -- 80
2020-11-18 18:00:00 21.5 6 Este 9 Este 0 -- -- 58
2020-11-18 17:00:00 23.1 7 Este 14 Este 0 -- -- 62
2020-11-18 16:00:00 23.8 11 Este 16 Este 0 -- -- 49
2020-11-18 15:00:00 23.5 13 Este 19 Este 0 -- -- 52
2020-11-18 14:00:00 22.8 12 Este 19 Este 0 -- -- 60
2020-11-18 13:00:00 21.8 13 Este 18 Este 0 -- -- 59
2020-11-18 12:00:00 20.1 14 Este 20 Este 0 -- -- 61
2020-11-18 11:00:00 19.9 15 Este 22 Este 0 -- -- 55
2020-11-18 10:00:00 19.1 13 Este 19 Este 0 -- -- 47
2020-11-18 09:00:00 17.2 15 Sudeste 17 Este 0 -- -- 53
2020-11-18 08:00:00 16.6 12 Este 14 Sudeste 0 -- -- 51
2020-11-18 07:00:00 16.7 10 Sudeste 13 Este 0 -- -- 50
2020-11-18 06:00:00 17.1 10 Este 15 Este 0 -- -- 52
2020-11-18 05:00:00 16.7 9 Este 12 Este 0 -- -- 59
2020-11-18 04:00:00 16.2 8 Este 10 Este 0 -- -- 68
2020-11-18 03:00:00 16.3 7 Este 11 Sudeste 0 -- -- 63
2020-11-18 02:00:00 16.6 6 Este 11 Sudeste 0 -- -- 60
2020-11-18 01:00:00 16.4 9 Sudeste 13 Sudeste 0 -- -- 64
2020-11-18 00:00:00 16.2 8 Este 12 Este 0 -- -- 73
2020-11-17 23:00:00 16.3 9 Sudeste 12 Este 0 -- -- 72
2020-11-17 22:00:00 16.4 8 Sudeste 10 Sudeste 0 -- -- 77
2020-11-17 21:00:00 16.6 9 Sudeste 14 Sudeste 0 -- -- 82
2020-11-17 20:00:00 16.5 11 Sudeste 13 Sudeste 0 -- -- 85
2020-11-17 19:00:00 17.3 10 Sudeste 12 Sudeste 0 -- -- 82
2020-11-17 18:00:00 19.5 7 Sur 13 Sudoeste 0 -- -- 68
2020-11-17 17:00:00 21.6 11 Sudoeste 15 Sudoeste 0 -- -- 60
2020-11-17 16:00:00 22.3 10 Sudoeste 18 Sudoeste 0 -- -- 55
2020-11-17 15:00:00 22.8 4 Sudoeste 18 Este 0 -- -- 64
2020-11-17 14:00:00 21.2 13 Este 20 Este 0 -- -- 77
2020-11-17 13:00:00 19.5 12 Este 18 Este 0 -- -- 83
2020-11-17 12:00:00 17.6 10 Este 16 Este 0 -- -- 88
2020-11-17 11:00:00 15.7 14 Este 16 Este 0 -- -- 87
2020-11-17 10:00:00 14.7 12 Este 19 Sudeste 0 -- -- 84
2020-11-17 09:00:00 14.6 14 Este 19 Este 0 -- -- 87
2020-11-17 08:00:00 13.7 15 Este 18 Este 0 -- -- 89
2020-11-17 07:00:00 13.9 9 Este 17 Este 0 -- -- 90
2020-11-17 06:00:00 14.1 11 Sudeste 14 Sudeste 0.2 -- -- 91
2020-11-17 05:00:00 13.7 12 Este 14 Este 0 -- -- 93
2020-11-17 04:00:00 13.9 8 Sudeste 12 Este 0 -- -- 94
2020-11-17 03:00:00 13 4 Sudeste 14 Sudeste 0 -- -- 89
2020-11-17 02:00:00 14.1 13 Sudeste 19 Este 0 -- -- 92
2020-11-17 01:00:00 14 14 Este 17 Este 0 -- -- 96
2020-11-17 00:00:00 13.4 8 Sudeste 12 Sudeste 0 -- -- 96
2020-11-16 23:00:00 13.5 6 Este 10 Este 0 -- -- 97
2020-11-16 22:00:00 13.3 9 Nordeste 10 Nordeste 0 -- -- 96
2020-11-16 21:00:00 14 7 Nordeste 8 Nordeste 0 -- -- 95
2020-11-16 20:00:00 15.1 5 Nordeste 8 Nordeste 0 -- -- 91
2020-11-16 19:00:00 15.9 7 Nordeste 9 Norte 0 -- -- 87
2020-11-16 18:00:00 17.3 10 Norte 12 Norte 0 -- -- 83
2020-11-16 17:00:00 18.9 10 Noroeste 18 Norte 0 -- -- 73
2020-11-16 16:00:00 19.3 14 Noroeste 17 Noroeste 0 -- -- 74
2020-11-16 15:00:00 19.6 5 Noroeste 10 Oeste 0 -- -- 71
2020-11-16 14:00:00 18.9 5 Oeste 10 Sudoeste 0 -- -- 74
2020-11-16 13:00:00 18.9 2 Sudoeste 6 Norte 0 -- -- 73
2020-11-16 12:00:00 17.3 4 Sudeste 8 Sudeste 0 -- -- 83
2020-11-16 11:00:00 14.7 3 Sur 5 Sudoeste 0 -- -- 98
2020-11-16 10:00:00 14.1 2 Oeste 4 Sur 0 -- -- 98
2020-11-16 09:00:00 13.8 2 Sudeste 6 Noroeste 0 -- -- 97
2020-11-16 08:00:00 13.4 4 Oeste 8 Oeste 0 -- -- 97
2020-11-16 07:00:00 13.3 3 Noroeste 7 Oeste 0 -- -- 96
2020-11-16 06:00:00 13.8 4 Sudoeste 6 Sur 0 -- -- 95
2020-11-16 05:00:00 13.4 2 Oeste 8 Sur 0 -- -- 96
2020-11-16 04:00:00 13.5 5 Sur 13 Sur 0 -- -- 94
2020-11-16 03:00:00 13.5 6 Sudoeste 12 Oeste 0 -- -- 93
2020-11-16 02:00:00 13.4 10 Noroeste 15 Oeste 0 -- -- 91
2020-11-16 01:00:00 15.7 6 Sudoeste 11 Sur 0 -- -- 79
2020-11-16 00:00:00 15.5 9 Sur 15 Sur 0 -- -- 82
2020-11-15 23:00:00 15.4 14 Sudeste 20 Sudeste 0 -- -- 84
2020-11-15 22:00:00 16.1 15 Sudeste 19 Sudeste 0 -- -- 83
2020-11-15 21:00:00 16 16 Sudeste 20 Sudeste 0 -- -- 87
2020-11-15 20:00:00 16.4 17 Sudeste 24 Sudeste 0 -- -- 84
2020-11-15 19:00:00 17.5 14 Sur 18 Sur 0 -- -- 74
2020-11-15 18:00:00 19.2 11 Sur 26 Sur 0 -- -- 68
2020-11-15 17:00:00 20.9 22 Sur 30 Sudoeste 0 -- -- 64
2020-11-15 16:00:00 21.1 22 Sudoeste 32 Sur 0 -- -- 65
2020-11-15 15:00:00 21.3 21 Sur 35 Sur 0 -- -- 67
2020-11-15 14:00:00 21.6 17 Sudoeste 29 Sur 0 -- -- 61
2020-11-15 13:00:00 20.2 8 Sur 21 Sur 0 -- -- 65
2020-11-15 12:00:00 19.2 14 Sudeste 22 Sur 0 -- -- 73
2020-11-15 11:00:00 17.4 17 Sudeste 25 Sudeste 0 -- -- 84
2020-11-15 10:00:00 16.2 19 Sudeste 26 Sudeste 0 -- -- 88
2020-11-15 09:00:00 14.2 21 Sudeste 27 Sudeste 0 -- -- 96
2020-11-15 08:00:00 13.9 16 Sudeste 28 Sudeste 0 -- -- 95
2020-11-15 07:00:00 14 22 Sudeste 26 Sudeste 0 -- -- 95
2020-11-15 06:00:00 14.2 17 Sudeste 21 Sudeste 0 -- -- 94
2020-11-15 05:00:00 14.2 19 Sudeste 23 Sudeste 0 -- -- 95
2020-11-15 04:00:00 14.1 16 Sudeste 23 Sudeste 0 -- -- 95
2020-11-15 03:00:00 14 14 Sudeste 18 Sudeste 0 -- -- 96
2020-11-15 02:00:00 13.4 12 Sudeste 20 Sudeste 0 -- -- 96
2020-11-15 01:00:00 13.6 15 Este 23 Este 0 -- -- 94
2020-11-15 00:00:00 14 16 Sudeste 18 Sudeste 0 -- -- 94
2020-11-14 23:00:00 14.1 11 Sudeste 14 Sudeste 0 -- -- 92
2020-11-14 22:00:00 14.6 8 Sudeste 11 Sudeste 0 -- -- 92
2020-11-14 21:00:00 14.6 5 Sur 10 Sudoeste 0 -- -- 93
2020-11-14 20:00:00 15.1 8 Sudoeste 15 Sudoeste 0 -- -- 93
2020-11-14 19:00:00 15.7 7 Oeste 16 Oeste 0 -- -- 87
2020-11-14 18:00:00 16.3 6 Oeste 27 Sudoeste 0 -- -- 82
2020-11-14 17:00:00 18.3 20 Sudoeste 29 Sudoeste 0 -- -- 71
2020-11-14 16:00:00 18.4 21 Sudoeste 28 Sudoeste 0 -- -- 72
2020-11-14 15:00:00 17.9 21 Sudoeste 32 Sudoeste 0 -- -- 79
2020-11-14 14:00:00 18.5 24 Sudoeste 33 Sur 0 -- -- 74
2020-11-14 13:00:00 16.5 24 Sudoeste 33 Sur 0 -- -- 84
2020-11-14 12:00:00 15.7 19 Sur 31 Sur 0 -- -- 88
2020-11-14 11:00:00 14.8 18 Sur 27 Sur 0 -- -- 92
2020-11-14 10:00:00 14.3 12 Sudeste 18 Sur 0 -- -- 94
2020-11-14 09:00:00 13.9 14 Sur 24 Sudeste 0 -- -- 94
2020-11-14 08:00:00 13.9 16 Sudeste 25 Sudeste 0 -- -- 95
2020-11-14 07:00:00 13.7 16 Sudeste 27 Sudeste 0 -- -- 95
2020-11-14 06:00:00 13.7 17 Sudeste 22 Sudeste 0 -- -- 94
2020-11-14 05:00:00 13.6 12 Sudeste 18 Sudeste 0 -- -- 91
2020-11-14 04:00:00 13.2 12 Sudeste 18 Sudeste 0 -- -- 94
2020-11-14 03:00:00 13.5 14 Sudeste 17 Sudeste 0 -- -- 93
2020-11-14 02:00:00 13.7 8 Sudeste 13 Sudeste 0 -- -- 93
2020-11-14 01:00:00 14 10 Sudeste 21 Sudeste 0 -- -- 91
2020-11-14 00:00:00 13.9 13 Sudeste 18 Sudeste 0 -- -- 90
2020-11-13 23:00:00 13.9 12 Sudeste 20 Sudeste 0 -- -- 89
2020-11-13 22:00:00 14.2 14 Sudeste 19 Sudeste 0 -- -- 87
2020-11-13 21:00:00 14.2 13 Sudeste 15 Sudeste 0 -- -- 86
2020-11-13 20:00:00 14.3 9 Este 14 Sudeste 0 -- -- 85
2020-11-13 19:00:00 14.2 11 Sudeste 19 Sur 0 -- -- 86
2020-11-13 18:00:00 15.2 13 Sur 20 Sur 0 -- -- 80
2020-11-13 17:00:00 16 13 Sur 28 Sur 0 -- -- 75
2020-11-13 16:00:00 17 18 Sur 30 Sur 0 -- -- 68
2020-11-13 15:00:00 16.7 18 Sur 27 Sudeste 0 -- -- 71
2020-11-13 14:00:00 16.2 12 Sur 23 Sudeste 0 -- -- 72
2020-11-13 13:00:00 15.8 15 Sudeste 23 Sudeste 0 -- -- 73
2020-11-13 12:00:00 15.4 12 Sudeste 23 Sudeste 0 -- -- 74
2020-11-13 11:00:00 14.6 9 Este 16 Este 0 -- -- 80
2020-11-13 10:00:00 13.7 10 Este 19 Sudeste 0 -- -- 79
2020-11-13 09:00:00 12.4 12 Este 18 Este 0 -- -- 82
2020-11-13 08:00:00 11.8 12 Este 16 Sudeste 0 -- -- 81
2020-11-13 07:00:00 12 11 Sudeste 14 Sudeste 0 -- -- 80
2020-11-13 06:00:00 11.7 7 Este 12 Sudeste 0 -- -- 81
2020-11-13 05:00:00 11.9 10 Sudeste 13 Sudeste 0 -- -- 79
2020-11-13 04:00:00 12 10 Sudeste 13 Sudeste 0 -- -- 78
2020-11-13 03:00:00 12.1 9 Sudeste 16 Sudeste 0 -- -- 77
2020-11-13 02:00:00 11.8 12 Sudeste 14 Este 0 -- -- 79
2020-11-13 01:00:00 11.2 7 Sudeste 13 Sudeste 0 -- -- 79
2020-11-13 00:00:00 11.7 11 Sudeste 13 Sudeste 0 -- -- 78
2020-11-12 23:00:00 12.3 12 Sudeste 12 Sudeste 0 -- -- 75
2020-11-12 22:00:00 12.1 10 Sudeste 13 Sudeste 0 -- -- 76
2020-11-12 21:00:00 12.4 9 Sudeste 17 Este 0 -- -- 75
2020-11-12 20:00:00 12.8 13 Sudeste 15 Sudeste 0 -- -- 73
2020-11-12 19:00:00 14 12 Sudeste 17 Sudeste 0 -- -- 68
2020-11-12 18:00:00 15.6 13 Sudeste 22 Sudeste 0 -- -- 64
2020-11-12 17:00:00 17.1 18 Sudeste 26 Sudeste 0 -- -- 57
2020-11-12 16:00:00 17.3 18 Sudeste 29 Sudeste 0 -- -- 54
2020-11-12 15:00:00 16.9 19 Sudeste 27 Este 0 -- -- 58
2020-11-12 14:00:00 16.5 11 Este 23 Este 0 -- -- 65
2020-11-12 13:00:00 15.7 12 Este 23 Este 0 -- -- 71
2020-11-12 12:00:00 14.7 19 Sudeste 25 Sudeste 0 -- -- 76
2020-11-12 11:00:00 14 14 Este 23 Este 0 -- -- 77
2020-11-12 10:00:00 12 14 Este 21 Este 0 -- -- 86
2020-11-12 09:00:00 10.8 18 Este 20 Este 0 -- -- 86
2020-11-12 08:00:00 11.1 15 Este 17 Este 0 -- -- 84
2020-11-12 07:00:00 11.9 13 Este 18 Este 0 -- -- 81
2020-11-12 06:00:00 11.1 14 Este 20 Sudeste 0 -- -- 85
2020-11-12 05:00:00 10.3 16 Este 18 Este 0 -- -- 88
2020-11-12 04:00:00 10.5 9 Sudeste 20 Este 0 -- -- 87
2020-11-12 03:00:00 10.7 13 Sudeste 18 Este 0 -- -- 87
2020-11-12 02:00:00 11.6 14 Este 15 Este 0 -- -- 83
2020-11-12 01:00:00 11.5 12 Este 19 Este 0 -- -- 85
2020-11-12 00:00:00 10.8 13 Este 23 Este 0 -- -- 87
2020-11-11 23:00:00 13.1 15 Este 23 Este 0 -- -- 78
2020-11-11 22:00:00 12.8 17 Este 20 Sudeste 0 -- -- 79
2020-11-11 21:00:00 13.5 9 Este 13 Este 0 -- -- 75
2020-11-11 20:00:00 13.8 10 Este 16 Sudeste 0 -- -- 75
2020-11-11 19:00:00 14.5 11 Sudeste 13 Sudeste 0 -- -- 72
2020-11-11 18:00:00 15.2 11 Sudeste 17 Sudeste 0 -- -- 71
2020-11-11 17:00:00 16.9 14 Este 20 Este 0 -- -- 62
2020-11-11 16:00:00 17.2 14 Este 23 Este 0 -- -- 63
2020-11-11 15:00:00 17.4 16 Este 32 Sudeste 0 -- -- 62
2020-11-11 14:00:00 17 23 Sudeste 39 Sudeste 0 -- -- 65
2020-11-11 13:00:00 16.9 28 Sudeste 38 Sudeste 0 -- -- 68
2020-11-11 12:00:00 16.1 26 Sudeste 34 Sudeste 0 -- -- 71
2020-11-11 11:00:00 14.9 25 Sudeste 35 Sudeste 0 -- -- 76
2020-11-11 10:00:00 13.5 15 Sudeste 28 Sudeste 0 -- -- 83
2020-11-11 09:00:00 11.5 22 Sudeste 30 Sudeste 0 -- -- 88
2020-11-11 08:00:00 10 20 Sudeste 25 Sudeste 0 -- -- 90
2020-11-11 07:00:00 10.1 18 Este 24 Este 0 -- -- 85
2020-11-11 06:00:00 9.3 18 Este 23 Este 0 -- -- 89
2020-11-11 05:00:00 11.2 13 Este 23 Este 0 -- -- 81
2020-11-11 04:00:00 11.7 17 Este 23 Este 0 -- -- 79
2020-11-11 03:00:00 11.3 17 Este 18 Este -- -- -- 81
2020-11-11 02:00:00 11.9 12 Sudeste 15 Sudeste 0 -- -- 79
2020-11-11 01:00:00 12.3 10 Este 17 Este 0 -- -- 77
2020-11-11 00:00:00 11.9 12 Este 18 Este 0 -- -- 79
2020-11-10 23:00:00 12.1 15 Este 18 Este 0 -- -- 78
2020-11-10 22:00:00 11.8 14 Este 22 Este 0 -- -- 81
2020-11-10 21:00:00 12.6 17 Este 21 Este 0 -- -- 77
2020-11-10 20:00:00 12.1 12 Este 17 Nordeste 0 -- -- 80
2020-11-10 19:00:00 13 15 Nordeste 17 Nordeste 0 -- -- 76
2020-11-10 18:00:00 15.2 15 Nordeste 22 Nordeste 0 -- -- 68
2020-11-10 17:00:00 16.8 18 Nordeste 26 Nordeste 0 -- -- 58
2020-11-10 16:00:00 17.7 19 Nordeste 30 Nordeste 0 -- -- 61
2020-11-10 15:00:00 17.6 15 Nordeste 23 Nordeste 0 -- -- 59
2020-11-10 14:00:00 17.3 13 Este 20 Nordeste 0 -- -- 62
2020-11-10 13:00:00 16.7 14 Nordeste 22 Nordeste 0 -- -- 67
2020-11-10 12:00:00 15.7 9 Nordeste 15 Nordeste 0 -- -- 78
2020-11-10 11:00:00 13.7 9 Nordeste 12 Nordeste 0 -- -- 87
2020-11-10 10:00:00 11.1 3 Norte 5 Norte 0 -- -- 99
2020-11-10 09:00:00 7.8 3 Sur 4 Sudeste 0 -- -- 99
2020-11-10 08:00:00 7.5 0 Calma 5 Nordeste 0 -- -- 98
2020-11-10 07:00:00 8.1 0 Calma 7 Nordeste 0.2 -- -- 97
2020-11-10 06:00:00 8.8 6 Nordeste 11 Nordeste 0 -- -- 97
2020-11-10 05:00:00 8.8 10 Nordeste 12 Nordeste 0 -- -- 97
2020-11-10 04:00:00 10.2 4 Nordeste 6 Nordeste 0 -- -- 95
2020-11-10 03:00:00 10.3 0 Calma 2 Norte 0 -- -- 94
2020-11-10 02:00:00 10.5 0 Calma 4 Noroeste 0 -- -- 93
2020-11-10 01:00:00 10.9 2 Sudoeste 3 Norte 0 -- -- 93
2020-11-10 00:00:00 10.8 2 Sur 3 Oeste 0 -- -- 91
2020-11-09 23:00:00 11.2 3 Oeste 6 Norte 0 -- -- 91
2020-11-09 22:00:00 11.8 4 Noroeste 8 Norte 0 -- -- 89
2020-11-09 21:00:00 12 4 Noroeste 12 Norte 0 -- -- 88
2020-11-09 20:00:00 12.5 9 Norte 12 Norte 0 -- -- 86
2020-11-09 19:00:00 13.6 9 Norte 12 Norte 0 -- -- 81
2020-11-09 18:00:00 14.9 9 Norte 15 Norte 0 -- -- 76
2020-11-09 17:00:00 17.1 4 Noroeste 13 Noroeste 0 -- -- 60
2020-11-09 16:00:00 17.2 8 Norte 15 Norte 0 -- -- 64
2020-11-09 15:00:00 17.4 4 Sudoeste 9 Oeste 0 -- -- 60
2020-11-09 14:00:00 15.8 6 Norte 15 Norte 0 -- -- 69
2020-11-09 13:00:00 14.7 4 Norte 11 Oeste 0 -- -- 72
2020-11-09 12:00:00 13.9 5 Noroeste 11 Noroeste 0 -- -- 79
2020-11-09 11:00:00 12.7 9 Noroeste 13 Noroeste 0 -- -- 89
2020-11-09 10:00:00 11.9 4 Oeste 8 Sudoeste 0 -- -- 95
2020-11-09 09:00:00 11.6 3 Norte 9 Oeste 0 -- -- 98
2020-11-09 08:00:00 11.2 5 Noroeste 9 Noroeste 0 -- -- 97
2020-11-09 07:00:00 11.6 3 Oeste 8 Noroeste 0 -- -- 97
2020-11-09 06:00:00 11.8 7 Oeste 10 Oeste 0 -- -- 97
2020-11-09 05:00:00 11.8 4 Noroeste 19 Noroeste 0.2 -- -- 97
2020-11-09 04:00:00 11.8 8 Noroeste 18 Noroeste 2.2 -- -- 96
2020-11-09 03:00:00 12.7 16 Oeste 21 Oeste 0.6 -- -- 95
2020-11-09 02:00:00 13.2 13 Sur 18 Sur 0 -- -- 93
2020-11-09 01:00:00 13.3 15 Sur 22 Sur 0.2 -- -- 92
2020-11-09 00:00:00 13.2 14 Sur 26 Sur 1 -- -- 90
2020-11-08 23:00:00 13.3 16 Sur 21 Sur 0.4 -- -- 90
2020-11-08 22:00:00 13.4 15 Sur 24 Sur 0.6 -- -- 90
2020-11-08 21:00:00 13.9 16 Sur 27 Sur 0 -- -- 86
2020-11-08 20:00:00 14.4 20 Sur 27 Sur 0 -- -- 83
2020-11-08 19:00:00 14.6 19 Sur 29 Sur 0 -- -- 83
2020-11-08 18:00:00 15.4 22 Sur 31 Sur 0 -- -- 78
2020-11-08 17:00:00 15.9 21 Sur 29 Sur 0 -- -- 74
2020-11-08 16:00:00 16.8 21 Sur 31 Sur 0 -- -- 69
2020-11-08 15:00:00 17.1 21 Sur 36 Sur 0 -- -- 69
2020-11-08 14:00:00 16.4 25 Sur 35 Sur 0 -- -- 74
2020-11-08 13:00:00 16 24 Sur 37 Sur 0 -- -- 72
2020-11-08 12:00:00 15.8 27 Sur 36 Sur 0 -- -- 74
2020-11-08 11:00:00 14.3 21 Sur 31 Sudeste 0 -- -- 81
2020-11-08 10:00:00 12.8 21 Sudeste 30 Sudeste 0 -- -- 90
2020-11-08 09:00:00 12 23 Sudeste 30 Sudeste 0 -- -- 93
2020-11-08 08:00:00 11.5 17 Sudeste 31 Sudeste 0 -- -- 94
2020-11-08 07:00:00 11.9 20 Sudeste 27 Sudeste 0 -- -- 92
2020-11-08 06:00:00 12 13 Sudeste 22 Sudeste 0 -- -- 89
2020-11-08 05:00:00 11.9 15 Sudeste 28 Sur 0 -- -- 89
2020-11-08 04:00:00 12 18 Sur 32 Sur 0 -- -- 89
2020-11-08 03:00:00 11.9 17 Sudeste 25 Sudeste 0 -- -- 92
2020-11-08 02:00:00 11.6 15 Sudeste 28 Sudeste 0 -- -- 91
2020-11-08 01:00:00 11.6 17 Sudeste 22 Sudeste 0 -- -- 90
2020-11-08 00:00:00 11.3 13 Sudeste 18 Sur 0 -- -- 91
2020-11-07 23:00:00 11.7 14 Sudeste 24 Sur 0 -- -- 89
2020-11-07 22:00:00 12.1 22 Sudeste 30 Sur 0 -- -- 88
2020-11-07 21:00:00 12.1 20 Sudeste 25 Sur 0 -- -- 87
2020-11-07 20:00:00 12.7 13 Sudeste 21 Sudeste 0 -- -- 82
2020-11-07 19:00:00 13.1 14 Sudeste 17 Sudeste 0 -- -- 80
2020-11-07 18:00:00 14.9 16 Sur 27 Sur 0 -- -- 73
2020-11-07 17:00:00 16.2 22 Sur 36 Sudoeste 0 -- -- 66
2020-11-07 16:00:00 16.7 22 Sur 33 Sur 0 -- -- 61
2020-11-07 15:00:00 16.9 25 Sur 39 Sudoeste 0 -- -- 59
2020-11-07 14:00:00 15.9 24 Sudoeste 44 Sur 0 -- -- 65
2020-11-07 13:00:00 15.2 18 Sudoeste 32 Sudoeste 0 -- -- 70
2020-11-07 12:00:00 13.9 26 Sudoeste 36 Sudoeste 0 -- -- 76
2020-11-07 11:00:00 13.9 22 Sudoeste 34 Sudoeste 0 -- -- 79
2020-11-07 10:00:00 12.7 20 Sudoeste 33 Sudoeste 0 -- -- 86
2020-11-07 09:00:00 11.3 21 Sudoeste 28 Sudoeste 0 -- -- 90
2020-11-07 08:00:00 10.4 14 Sudoeste 19 Sur 0 -- -- 93
2020-11-07 07:00:00 10.4 9 Sur 21 Sur 0 -- -- 93
2020-11-07 06:00:00 11.1 16 Sur 30 Sur 0.2 -- -- 90
2020-11-07 05:00:00 11.3 23 Sur 37 Sur 0 -- -- 92
2020-11-07 04:00:00 10.9 24 Sudeste 37 Sur 0 -- -- 92
2020-11-07 03:00:00 11.7 23 Sur 39 Sur 0 -- -- 87
2020-11-07 02:00:00 11.9 29 Sudeste 36 Sudeste 0 -- -- 81
2020-11-07 01:00:00 12.5 25 Sudoeste 54 Sudoeste 4.8 -- -- 83
2020-11-07 00:00:00 13.4 11 Sudeste 28 Sudeste 3.6 -- -- 92
2020-11-06 23:00:00 14.1 16 Sudeste 27 Sudeste 0 -- -- 88
2020-11-06 22:00:00 14.1 13 Sudeste 35 Sur 0 -- -- 85
2020-11-06 21:00:00 14.4 30 Sur 41 Sur 0 -- -- 80
2020-11-06 20:00:00 14.3 21 Sudeste 44 Sur 0 -- -- 80
2020-11-06 19:00:00 14.5 32 Sur 46 Sur 0 -- -- 82
2020-11-06 18:00:00 15.5 18 Sur 43 Sudoeste 0 -- -- 74
2020-11-06 17:00:00 17.2 33 Sur 56 Sur 0 -- -- 67
2020-11-06 16:00:00 18.4 37 Sudeste 46 Sudeste 0 -- -- 62
2020-11-06 15:00:00 19.3 27 Sudeste 42 Sur 0 -- -- 58
2020-11-06 14:00:00 19.7 27 Sur 37 Sudeste 0 -- -- 58
2020-11-06 13:00:00 18.9 31 Sur 42 Sudeste 0 -- -- 60
2020-11-06 12:00:00 18.5 17 Sudeste 35 Sudeste 0 -- -- 57
2020-11-06 11:00:00 17.8 26 Sudeste 38 Este 0 -- -- 58
2020-11-06 10:00:00 14.6 25 Este 37 Este 0 -- -- 71
2020-11-06 09:00:00 14.2 27 Este 35 Este 0 -- -- 68
2020-11-06 08:00:00 12.8 22 Este 27 Este 0 -- -- 77
2020-11-06 07:00:00 13.8 18 Este 30 Este 0 -- -- 73
2020-11-06 06:00:00 13.8 23 Este 28 Este 0 -- -- 76
2020-11-06 05:00:00 14.4 16 Sudeste 31 Sudeste 0 -- -- 72
2020-11-06 04:00:00 14.2 16 Sudeste 32 Sudeste 0 -- -- 74
2020-11-06 03:00:00 14.7 28 Sudeste 40 Sudeste 0 -- -- 71
2020-11-06 02:00:00 14.2 22 Sudeste 39 Sudeste 0 -- -- 74
2020-11-06 01:00:00 13.4 19 Sudeste 33 Este 0 -- -- 79
2020-11-06 00:00:00 13.6 25 Este 39 Sudeste 0 -- -- 78
2020-11-05 23:00:00 13.5 28 Este 43 Este 0 -- -- 80
2020-11-05 22:00:00 13.7 31 Este 49 Este 0 -- -- 81
2020-11-05 21:00:00 13.6 37 Sudeste 46 Sudeste 0 -- -- 82
2020-11-05 20:00:00 13.8 35 Sudeste 45 Este 0 -- -- 83
2020-11-05 19:00:00 13.9 35 Sudeste 51 Este 0 -- -- 86
2020-11-05 18:00:00 14.1 31 Sudeste 43 Sudeste 0 -- -- 84
2020-11-05 17:00:00 15.1 29 Sudeste 39 Sudeste 0 -- -- 79
2020-11-05 16:00:00 15.9 29 Sudeste 39 Este 0 -- -- 82
2020-11-05 15:00:00 14.1 27 Sudeste 36 Este 0 -- -- 87
2020-11-05 14:00:00 13.3 25 Sudeste 37 Sudeste 0 -- -- 90
2020-11-05 13:00:00 13.3 28 Sudeste 41 Este 0 -- -- 89
2020-11-05 12:00:00 13 31 Sudeste 46 Sudeste 0 -- -- 90
2020-11-05 11:00:00 12.5 25 Sudeste 41 Sudeste 0.2 -- -- 91
2020-11-05 10:00:00 12.2 38 Sudeste 49 Sudeste 0 -- -- 90
2020-11-05 09:00:00 11.7 30 Sudeste 48 Sur 0.2 -- -- 92
2020-11-05 08:00:00 11.6 33 Sudeste 50 Sudeste 0.2 -- -- 93
2020-11-05 07:00:00 11.8 30 Sudeste 43 Sudeste 1.2 -- -- 95
2020-11-05 06:00:00 11 12 Este 18 Nordeste 3 -- -- 96
2020-11-05 05:00:00 10.9 11 Nordeste 24 Este 2 -- -- 96
2020-11-05 04:00:00 11.2 16 Este 43 Este 2.2 -- -- 95
2020-11-05 03:00:00 11.1 22 Este 35 Este 4 -- -- 97
2020-11-05 02:00:00 9.4 0 Calma 5 Sudoeste 0 -- -- 96
2020-11-05 01:00:00 9.3 2 Sudoeste 13 Sudoeste 0 -- -- 96
2020-11-05 00:00:00 10.2 4 Norte 14 Noroeste 0 -- -- 95
2020-11-04 23:00:00 11.1 8 Noroeste 19 Este 0 -- -- 92
2020-11-04 22:00:00 11 15 Este 19 Este 0 -- -- 96
2020-11-04 21:00:00 10.7 13 Nordeste 28 Nordeste 8.4 -- -- 93
2020-11-04 20:00:00 11 10 Norte 17 Nordeste 0.4 -- -- 90
2020-11-04 19:00:00 11.2 8 Este 48 Sur 3.8 -- -- 84
2020-11-04 18:00:00 11.9 18 Sudeste 37 Sudeste 2.6 -- -- 87
2020-11-04 17:00:00 14 28 Sur 37 Sudeste 0 -- -- 84
2020-11-04 16:00:00 15.8 23 Sur 33 Sudeste 0 -- -- 77
2020-11-04 15:00:00 16.2 19 Sur 28 Sudeste 0 -- -- 76
2020-11-04 14:00:00 16 20 Sudeste 26 Sudeste 0 -- -- 80
2020-11-04 13:00:00 14.3 17 Sudeste 26 Sudeste 0 -- -- 85
2020-11-04 12:00:00 14.5 20 Sudeste 28 Sudeste 0 -- -- 85
2020-11-04 11:00:00 14.6 21 Sur 27 Sur 0 -- -- 82
2020-11-04 10:00:00 14.9 11 Sudeste 17 Sudeste 0 -- -- 80
2020-11-04 09:00:00 12.8 6 Nordeste 10 Nordeste 0 -- -- 88
2020-11-04 08:00:00 11.3 5 Este 6 Este 0 -- -- 92
2020-11-04 07:00:00 11.4 3 Este 9 Norte 0 -- -- 90
2020-11-04 06:00:00 11.2 6 Norte 8 Norte 0 -- -- 89
2020-11-04 05:00:00 11.6 2 Oeste -- -- 0 -- -- 88
2020-11-04 04:00:00 11.1 3 Sur 8 Sur 0 -- -- 89
2020-11-04 03:00:00 11.7 5 Noroeste 11 Norte 0 -- -- 87
2020-11-04 02:00:00 11.8 7 Norte 10 Norte 0 -- -- 86
2020-11-04 01:00:00 12.7 0 Calma 6 Noroeste 0 -- -- 82
2020-11-04 00:00:00 12.9 0 Calma 5 Norte 0 -- -- 83
2020-11-03 23:00:00 13.5 3 Norte 5 Norte 0 -- -- 79
2020-11-03 22:00:00 13.6 4 Nordeste 9 Nordeste 0 -- -- 81
2020-11-03 21:00:00 13.4 8 Norte 10 Nordeste 0 -- -- 88
2020-11-03 20:00:00 14.9 5 Norte 11 Norte 0 -- -- 83
2020-11-03 19:00:00 15.1 9 Norte 12 Norte 0 -- -- 87
2020-11-03 18:00:00 16.2 5 Norte 13 Norte 0 -- -- 86
2020-11-03 17:00:00 17 8 Norte 13 Norte 0 -- -- 82
2020-11-03 16:00:00 16.3 8 Norte 13 Norte 0 -- -- 87
2020-11-03 15:00:00 15.7 10 Norte 14 Norte 0 -- -- 90
2020-11-03 14:00:00 15.5 5 Noroeste 9 Norte 0 -- -- 94
2020-11-03 13:00:00 14.7 8 Norte 17 Norte 0 -- -- 98
2020-11-03 12:00:00 14 13 Norte 19 Noroeste 0 -- -- 98
2020-11-03 11:00:00 14.6 7 Norte 13 Norte 0.2 -- -- 98
2020-11-03 10:00:00 14.7 8 Norte 15 Norte 0.4 -- -- 98
2020-11-03 09:00:00 14.6 7 Norte 13 Este 0 -- -- 98
2020-11-03 08:00:00 14.5 0 Calma 6 Sudeste 0 -- -- 98
2020-11-03 07:00:00 14.6 5 Oeste 10 Noroeste 0 -- -- 98
2020-11-03 06:00:00 14.7 7 Noroeste 13 Norte 0 -- -- 97
2020-11-03 05:00:00 14.4 0 Calma 7 Noroeste 0 -- -- 97
2020-11-03 04:00:00 14.3 4 Noroeste 8 Noroeste 0 -- -- 97
2020-11-03 03:00:00 14.1 4 Oeste 7 Oeste 0 -- -- 97
2020-11-03 02:00:00 13.9 7 Oeste 13 Noroeste 0 -- -- 96
2020-11-03 01:00:00 14.5 10 Noroeste 14 Noroeste 0 -- -- 95
2020-11-03 00:00:00 14.8 12 Noroeste 17 Noroeste 0 -- -- 94
2020-11-02 23:00:00 15.2 2 Noroeste 13 Noroeste 0 -- -- 93
2020-11-02 22:00:00 15.5 9 Noroeste 17 Noroeste 0 -- -- 93
2020-11-02 21:00:00 15.9 13 Norte 18 Noroeste 0 -- -- 92
2020-11-02 20:00:00 16.3 9 Noroeste 17 Noroeste 0 -- -- 90
2020-11-02 19:00:00 16.8 13 Noroeste 17 Noroeste 0 -- -- 88
2020-11-02 18:00:00 17.9 13 Noroeste 17 Noroeste 0 -- -- 82
2020-11-02 17:00:00 18.9 13 Noroeste 19 Noroeste 0 -- -- 74
2020-11-02 16:00:00 20.2 13 Noroeste 19 Noroeste 0 -- -- 70
2020-11-02 15:00:00 20.9 13 Noroeste 17 Noroeste 0 -- -- 62
2020-11-02 14:00:00 22.1 2 Norte 8 Norte 0 -- -- 51
2020-11-02 13:00:00 20.7 3 Nordeste 10 Oeste 0 -- -- 61
2020-11-02 12:00:00 18.9 3 Noroeste 10 Oeste 0 -- -- 75
2020-11-02 11:00:00 17.5 4 Sudoeste 8 Oeste 0 -- -- 82
2020-11-02 10:00:00 15.2 4 Este 9 Nordeste 0 -- -- 97
2020-11-02 09:00:00 12.9 3 Este 9 Nordeste 0 -- -- 98
2020-11-02 08:00:00 11.9 2 Norte 9 Nordeste 0 -- -- 97
2020-11-02 07:00:00 12.5 4 Nordeste 8 Nordeste 0 -- -- 96
2020-11-02 06:00:00 12.9 8 Nordeste 9 Nordeste 0 -- -- 96
2020-11-02 05:00:00 13.3 4 Nordeste 4 Norte 0 -- -- 94
2020-11-02 04:00:00 13.4 2 Norte 4 Norte 0 -- -- 91
2020-11-02 03:00:00 13.6 0 Calma 9 Sudeste 0 -- -- 90
2020-11-02 02:00:00 13.3 6 Sudeste 9 Sudeste 0 -- -- 87
2020-11-02 01:00:00 14.3 2 Noroeste 4 Norte 0 -- -- 85
2020-11-02 00:00:00 14.3 0 Calma 5 Noroeste 0 -- -- 85
2020-11-01 23:00:00 14.5 4 Noroeste 5 Noroeste 0 -- -- 83
2020-11-01 22:00:00 14.8 0 Calma 15 Nordeste 0 -- -- 82
2020-11-01 21:00:00 15.6 13 Norte 18 Norte 0 -- -- 81
2020-11-01 20:00:00 16.8 10 Norte 13 Norte 0 -- -- 73
2020-11-01 19:00:00 18.1 8 Norte 13 Norte 0 -- -- 69
2020-11-01 18:00:00 20.9 8 Norte 13 Noroeste 0 -- -- 59
2020-11-01 17:00:00 22.2 5 Noroeste 11 Noroeste 0 -- -- 52
2020-11-01 16:00:00 22.2 6 Norte 12 Noroeste 0 -- -- 56
2020-11-01 15:00:00 21.1 5 Nordeste 11 Nordeste 0 -- -- 60
2020-11-01 14:00:00 20.7 6 Norte 14 Norte 0 -- -- 63
2020-11-01 13:00:00 20.4 5 Nordeste 13 Norte 0 -- -- 66
2020-11-01 12:00:00 19 4 Norte 11 Noroeste 0 -- -- 72
2020-11-01 11:00:00 18.1 3 Norte 6 Este 0 -- -- 76
2020-11-01 10:00:00 16.4 2 Nordeste 4 Este 0 -- -- 81
2020-11-01 09:00:00 13.7 2 Noroeste 6 Noroeste 0 -- -- 90
2020-11-01 08:00:00 13.1 3 Norte 5 Nordeste 0 -- -- 92
2020-11-01 07:00:00 13.4 3 Noroeste 4 Noroeste 0 -- -- 90
2020-11-01 06:00:00 13.2 2 Sudeste 4 Sudeste 0 -- -- 89
2020-11-01 05:00:00 13.8 2 Sur 5 Oeste 0 -- -- 87
2020-11-01 04:00:00 14.2 0 Calma 6 Sur 0 -- -- 85
2020-11-01 03:00:00 14.4 2 Sudoeste 5 Oeste 0 -- -- 83
2020-11-01 02:00:00 14.2 3 Sudoeste 6 Sur 0 -- -- 81
2020-11-01 01:00:00 13.9 5 Sur 9 Oeste 0 -- -- 78
2020-11-01 00:00:00 15.3 7 Noroeste 9 Noroeste 0 -- -- 72
2020-10-31 23:00:00 16.2 3 Oeste 5 Oeste 0 -- -- 68
2020-10-31 22:00:00 16.4 0 Calma 3 Nordeste 0 -- -- 67
2020-10-31 21:00:00 16.6 5 Noroeste 21 Norte 0 -- -- 68
2020-10-31 20:00:00 17.7 17 Norte 21 Norte 0 -- -- 65
2020-10-31 19:00:00 18.8 15 Norte 17 Norte 0 -- -- 63
2020-10-31 18:00:00 21.8 7 Norte 9 Noroeste 0 -- -- 52
2020-10-31 17:00:00 22.9 6 Noroeste 18 Noroeste 0 -- -- 45
2020-10-31 16:00:00 23.3 6 Norte 14 Noroeste 0 -- -- 49
2020-10-31 15:00:00 23 3 Norte 17 Noroeste 0 -- -- 49
2020-10-31 14:00:00 22.4 9 Noroeste 17 Noroeste 0 -- -- 52
2020-10-31 13:00:00 22.2 4 Norte 12 Nordeste 0 -- -- 47
2020-10-31 12:00:00 21.1 6 Este 9 Este 0 -- -- 54
2020-10-31 11:00:00 18.4 2 Oeste 7 Oeste 0 -- -- 68
2020-10-31 10:00:00 16.5 0 Calma 5 Oeste 0 -- -- 69
2020-10-31 09:00:00 16 0 Calma 6 Sudeste 0 -- -- 70
2020-10-31 08:00:00 14.4 6 Sudeste 10 Este 0 -- -- 75
2020-10-31 07:00:00 13.8 6 Sudeste 8 Sudeste 0 -- -- 78
2020-10-31 06:00:00 14.2 3 Sudoeste 4 Oeste 0 -- -- 78
2020-10-31 05:00:00 14.8 2 Oeste 3 Sudoeste 0 -- -- 76
2020-10-31 04:00:00 15 3 Sudoeste 5 Oeste 0 -- -- 75
2020-10-31 03:00:00 15.5 0 Calma 4 Oeste 0 -- -- 74
2020-10-31 02:00:00 15.3 0 Calma 5 Sudeste 0 -- -- 74
2020-10-31 01:00:00 15.3 2 Sur 4 Sur 0 -- -- 72
2020-10-31 00:00:00 15.8 3 Sur 5 Oeste 0 -- -- 69
2020-10-30 23:00:00 15.9 3 Sudoeste 6 Sudoeste 0 -- -- 68
2020-10-30 22:00:00 16.6 5 Este 10 Nordeste 0 -- -- 73
2020-10-30 21:00:00 16.7 9 Nordeste 11 Norte 0 -- -- 72
2020-10-30 20:00:00 18.5 0 Calma 10 Sudeste 0 -- -- 56
2020-10-30 19:00:00 19.8 4 Sur 9 Sudeste 0 -- -- 56
2020-10-30 18:00:00 21.3 8 Sudeste 11 Este 0 -- -- 50
2020-10-30 17:00:00 22.5 2 Norte 10 Oeste 0 -- -- 47
2020-10-30 16:00:00 24.4 5 Oeste 20 Noroeste 0 -- -- 38
2020-10-30 15:00:00 24 10 Oeste 19 Oeste 0 -- -- 39
2020-10-30 14:00:00 24 6 Este 22 Sur 0 -- -- 39
2020-10-30 13:00:00 23.2 17 Sur 25 Sudeste 0 -- -- 42
2020-10-30 12:00:00 21.6 12 Este 21 Este 0 -- -- 50
2020-10-30 11:00:00 18.7 12 Este 24 Este 0 -- -- 63
2020-10-30 10:00:00 15.7 19 Este 26 Este 0 -- -- 69
2020-10-30 09:00:00 14.7 16 Este 22 Este 0 -- -- 69
2020-10-30 08:00:00 13.7 13 Este 21 Este 0 -- -- 71
2020-10-30 07:00:00 13 18 Este 21 Este 0 -- -- 76
2020-10-30 06:00:00 11.6 15 Este 17 Este 0 -- -- 84
2020-10-30 05:00:00 12 12 Nordeste 13 Este 0 -- -- 82
2020-10-30 04:00:00 12.3 11 Nordeste 12 Nordeste 0 -- -- 81
2020-10-30 03:00:00 14 2 Norte 15 Este 0 -- -- 72
2020-10-30 02:00:00 15.1 13 Este 20 Este 0 -- -- 69
2020-10-30 01:00:00 15.7 14 Este 24 Este 0 -- -- 63
2020-10-30 00:00:00 16.4 22 Este 27 Este 0 -- -- 70
2020-10-29 23:00:00 16.3 16 Este 19 Este 0 -- -- 68
2020-10-29 22:00:00 16.2 16 Este 18 Este 0 -- -- 61
2020-10-29 21:00:00 17.3 9 Sudeste 15 Sudeste 0 -- -- 56
2020-10-29 20:00:00 17.6 14 Sudeste 17 Sudeste 0 -- -- 58
2020-10-29 19:00:00 19.1 11 Sudeste 15 Sudeste 0 -- -- 54
2020-10-29 18:00:00 22.4 12 Sudeste 20 Sudeste 0 -- -- 46
2020-10-29 17:00:00 23.7 12 Sudeste 25 Sudeste 0 -- -- 40
2020-10-29 16:00:00 23.8 14 Sudeste 27 Sudeste 0 -- -- 43
2020-10-29 15:00:00 23.5 13 Este 24 Sudeste 0 -- -- 47
2020-10-29 14:00:00 22.6 11 Este 23 Este 0 -- -- 52
2020-10-29 13:00:00 21.1 13 Este 20 Este 0 -- -- 59
2020-10-29 12:00:00 19.4 10 Este 19 Este 0 -- -- 72
2020-10-29 11:00:00 17.1 12 Este 18 Este 0 -- -- 81
2020-10-29 10:00:00 15 14 Este 18 Este 0 -- -- 87
2020-10-29 09:00:00 12.5 5 Nordeste 9 Nordeste 0 -- -- 93
2020-10-29 08:00:00 11.3 9 Este 22 Este 0 -- -- 95
2020-10-29 07:00:00 11 15 Este 17 Este 0 -- -- 95
2020-10-29 06:00:00 12 13 Este 15 Este 0 -- -- 93
2020-10-29 05:00:00 11.8 4 Sudeste 12 Nordeste 0 -- -- 95
2020-10-29 04:00:00 11.4 10 Nordeste 13 Este 0 -- -- 94
2020-10-29 03:00:00 12 11 Este 12 Este 0 -- -- 95
2020-10-29 02:00:00 12.1 8 Nordeste 13 Este 0 -- -- 91
2020-10-29 01:00:00 12.9 10 Este 18 Este 0 -- -- 92
2020-10-29 00:00:00 13.2 12 Este 15 Este 0 -- -- 93
2020-10-28 23:00:00 13 13 Nordeste 17 Nordeste 0 -- -- 93
2020-10-28 22:00:00 13.1 13 Nordeste 18 Nordeste 0 -- -- 93
2020-10-28 21:00:00 13.8 14 Norte 21 Norte 0 -- -- 90
2020-10-28 20:00:00 14.6 12 Norte 14 Norte 0 -- -- 87
2020-10-28 19:00:00 16 8 Norte 10 Noroeste 0 -- -- 81
2020-10-28 18:00:00 18.2 8 Noroeste 14 Noroeste 0 -- -- 73
2020-10-28 17:00:00 18.5 9 Norte 20 Norte 0 -- -- 72
2020-10-28 16:00:00 18.7 12 Norte 20 Noroeste 0 -- -- 72
2020-10-28 15:00:00 18.1 10 Norte 19 Norte 0 -- -- 72
2020-10-28 14:00:00 17.1 9 Norte 15 Nordeste 0 -- -- 75
2020-10-28 13:00:00 16.3 5 Norte 9 Norte 0 -- -- 72
2020-10-28 12:00:00 14.7 5 Nordeste 11 Este 0 -- -- 78
2020-10-28 11:00:00 13.8 5 Nordeste 12 Norte 0 -- -- 78
2020-10-28 10:00:00 12.8 8 Nordeste 11 Norte 0 -- -- 82
2020-10-28 09:00:00 11.7 5 Nordeste 8 Este 0 -- -- 85
2020-10-28 08:00:00 9.7 6 Este 8 Este 0 -- -- 91
2020-10-28 07:00:00 10 3 Norte 5 Norte 0 -- -- 86
2020-10-28 06:00:00 9.4 0 Calma 6 Norte 0 -- -- 86
2020-10-28 05:00:00 9.8 5 Norte 7 Norte 0 -- -- 83
2020-10-28 04:00:00 9.4 3 Sudoeste 5 Sudoeste 0 -- -- 86
2020-10-28 03:00:00 9.9 3 Sudoeste 6 Sudoeste 0 -- -- 84
2020-10-28 02:00:00 9.8 3 Sur 5 Sudoeste 0 -- -- 85
2020-10-28 01:00:00 9.9 4 Sudoeste 5 Sudoeste 0 -- -- 85
2020-10-28 00:00:00 10.1 3 Sur -- -- 0 -- -- 84
2020-10-27 23:00:00 10.4 2 Sudoeste 5 Nordeste 0 -- -- 84
2020-10-27 22:00:00 11 5 Norte 8 Nordeste 0 -- -- 81
2020-10-27 21:00:00 11.1 7 Norte 12 Norte 0 -- -- 82
2020-10-27 20:00:00 11.9 10 Norte 18 Norte 0 -- -- 77
2020-10-27 19:00:00 13.2 12 Norte 18 Norte 0 -- -- 75
2020-10-27 18:00:00 14.5 13 Norte 19 Noroeste 0 -- -- 68
2020-10-27 17:00:00 15.6 12 Noroeste 19 Oeste 0 -- -- 63
2020-10-27 16:00:00 15.5 9 Oeste 24 Noroeste 0 -- -- 59
2020-10-27 15:00:00 15.4 4 Oeste 15 Oeste 0 -- -- 58
2020-10-27 14:00:00 14.5 4 Noroeste 14 Noroeste 0 -- -- 60
2020-10-27 13:00:00 13.2 4 Oeste 13 Oeste 0 -- -- 60
2020-10-27 12:00:00 12.4 5 Noroeste 9 Noroeste 0 -- -- 65
2020-10-27 11:00:00 10.9 4 Oeste 8 Oeste 0 -- -- 70
2020-10-27 10:00:00 8.5 3 Sur 6 Oeste 0 -- -- 81
2020-10-27 09:00:00 7.5 5 Oeste 6 Oeste 0 -- -- 86
2020-10-27 08:00:00 6.4 3 Sudoeste 6 Sudoeste 0 -- -- 88
2020-10-27 07:00:00 6.4 5 Sudoeste 6 Sudoeste 0 -- -- 87
2020-10-27 06:00:00 6.9 4 Oeste 7 Oeste 0 -- -- 85
2020-10-27 05:00:00 7.1 4 Sudoeste 7 Sudoeste 0 -- -- 84
2020-10-27 04:00:00 7.2 4 Sudoeste 8 Sudoeste 0 -- -- 83
2020-10-27 03:00:00 7.6 5 Sudoeste 8 Sudoeste 0 -- -- 82
2020-10-27 02:00:00 8 4 Sudoeste 8 Oeste 0 -- -- 80
2020-10-27 01:00:00 7.4 6 Sur 10 Sudeste 0 -- -- 84
2020-10-27 00:00:00 8.1 6 Oeste 10 Oeste 0 -- -- 81
2020-10-26 23:00:00 8.7 5 Noroeste 9 Oeste 0 -- -- 79
2020-10-26 22:00:00 9 8 Oeste 9 Oeste 0 -- -- 76
2020-10-26 21:00:00 9.8 9 Noroeste 17 Noroeste 0 -- -- 75
2020-10-26 20:00:00 10.1 12 Norte 17 Noroeste 0 -- -- 73
2020-10-26 19:00:00 10.9 15 Noroeste 21 Noroeste 0 -- -- 73
2020-10-26 18:00:00 12.6 21 Noroeste 25 Noroeste 0 -- -- 63
2020-10-26 17:00:00 13.6 19 Noroeste 29 Noroeste 0 -- -- 62
2020-10-26 16:00:00 13.4 19 Noroeste 28 Noroeste 0 -- -- 62
2020-10-26 15:00:00 12.8 15 Noroeste 31 Oeste 0 -- -- 64
2020-10-26 14:00:00 12.7 15 Noroeste 31 Oeste 0 -- -- 64
2020-10-26 13:00:00 11.8 18 Noroeste 31 Noroeste 0 -- -- 68
2020-10-26 12:00:00 11.4 26 Noroeste 37 Noroeste 0 -- -- 73
2020-10-26 11:00:00 9.8 22 Oeste 33 Oeste 0 -- -- 87
2020-10-26 10:00:00 8.7 21 Oeste 28 Oeste 0 -- -- 96
2020-10-26 09:00:00 7.5 12 Oeste 16 Oeste 0 -- -- 98
2020-10-26 08:00:00 6.8 12 Oeste 21 Oeste 0 -- -- 97
2020-10-26 07:00:00 7.3 16 Oeste 22 Oeste 0 -- -- 96
2020-10-26 06:00:00 7.9 17 Oeste 27 Oeste 0 -- -- 96
2020-10-26 05:00:00 8.8 17 Oeste 27 Oeste 0.2 -- -- 96
2020-10-26 04:00:00 8.8 15 Oeste 22 Oeste 0 -- -- 95
2020-10-26 03:00:00 9.1 15 Oeste 28 Oeste 0 -- -- 93
2020-10-26 02:00:00 9.5 21 Oeste 29 Oeste 0 -- -- 92
2020-10-26 01:00:00 10.3 22 Oeste 33 Oeste 0 -- -- 94
2020-10-26 00:00:00 10.7 25 Oeste 44 Oeste 1 -- -- 95